Aérodrome :
LOGIN :

S'inscrire | Disclaimer

   EN    FR    IT 

 










Légende :    VFR   VFR Marginal   IFR   IFR Intensif   IFR Très Intensif
Visi : 
Plafond : 
>= 8 km
>= 3000ft
5 à 8 km
1000 à 3000 ft
1500m à 5 km
500 à 1000 ft
800 à 1500m
200 à 500 ft
< 800m
< 200 ft
Symboles :   Orages  Brouillard  Fortes neiges  Fortes précipitations  Vent > 20 kt
SIGMETs :   Divers  Orages  Givrage  Turbulence  Onde Orograph.  Cendres Volcan.






- Altitude de l'aérodrome : 313 ft
- Code IATA : LEH


LFOH - Le Havre Octeville

DERNIER METAR :
  • 211600Z AUTO 15010KT 9999 -RA BKN014 BKN023 BKN037 07/06 Q1000 TEMPO 3000 RA OVC003

METARs EXPIRÉS :
  • 211530Z AUTO 15011KT 9999 -RA SCT033 BKN041 BKN048 07/05 Q1000 TEMPO 3000 RA OVC003
  • 211500Z AUTO 15011KT 9999 FEW014 BKN042 BKN052 07/05 Q1000 TEMPO 3000 RA OVC003
  • 211430Z AUTO 15011KT 9999 BKN015 BKN046 BKN052 07/05 Q1000 TEMPO 3000 RA OVC003
  • 211400Z AUTO 15013KT 9999 FEW023 BKN047 OVC058 07/05 Q1000 TEMPO 3000 RA OVC003
  • 211330Z AUTO 15010KT 9999 FEW014 OVC052 07/04 Q1000 TEMPO 3000 RA OVC003
  • 211300Z AUTO 14012KT CAVOK 06/04 Q1000 TEMPO 3000 RA OVC003

TAF TAF LFOH
Valide du 21 à 12h jusqu'au 22 à 12h UTC


211100Z 2112/2212 14012KT 7000 SCT005 BKN030
BECMG 2112/2114 BKN012
TEMPO 2114/2118 3000 RA OVC003
BECMG 2123/2201 NSC
TEMPO 2208/2212 BKN008
ATIS : +33 2 35 54 64 93



MET'MAP, la Météo Aéronautique d'un coup d'oeil ! - Copyright ORBIFLY Décembre 2007 - Disclaimer

ORBIFLY MET'MAP TEAM :

Programmation & Développement : Alexandra Zaïnal
Conception & Développement : Baudouin d'Aumeries
Co-Programmation & Développement : Marc-Olivier Méhu
Soutien technique & logistique : Manuel Goepfert

Contact : metmap@orbifly.com




SOURCES & CREDITS :

   NOAA